sensor_id;sensor_type;location;lat;lon;timestamp;temperature;humidity
46029;DHT22;31763;48.180;7.904;2022-09-17T00:01:19;10.80;99.90
46029;DHT22;31763;48.180;7.904;2022-09-17T00:03:51;10.40;99.90
46029;DHT22;31763;48.180;7.904;2022-09-17T00:06:22;10.60;99.90
46029;DHT22;31763;48.180;7.904;2022-09-17T00:08:49;10.60;99.90
46029;DHT22;31763;48.180;7.904;2022-09-17T00:11:24;9.90;99.90
46029;DHT22;31763;48.180;7.904;2022-09-17T00:13:54;10.20;99.90
46029;DHT22;31763;48.180;7.904;2022-09-17T00:16:25;10.20;99.90
46029;DHT22;31763;48.180;7.904;2022-09-17T00:18:54;10.40;99.90
46029;DHT22;31763;48.180;7.904;2022-09-17T00:21:22;10.30;99.90
46029;DHT22;31763;48.180;7.904;2022-09-17T00:23:58;10.30;99.90
46029;DHT22;31763;48.180;7.904;2022-09-17T00:26:27;10.40;99.90
46029;DHT22;31763;48.180;7.904;2022-09-17T00:28:55;10.50;99.90
46029;DHT22;31763;48.180;7.904;2022-09-17T00:31:23;10.60;99.90
46029;DHT22;31763;48.180;7.904;2022-09-17T00:33:51;10.10;99.90
46029;DHT22;31763;48.180;7.904;2022-09-17T00:36:19;10.30;99.90
46029;DHT22;31763;48.180;7.904;2022-09-17T00:38:57;9.90;99.90
46029;DHT22;31763;48.180;7.904;2022-09-17T00:41:28;10.00;99.90
46029;DHT22;31763;48.180;7.904;2022-09-17T00:43:58;10.00;99.90
46029;DHT22;31763;48.180;7.904;2022-09-17T00:46:39;9.70;99.90
46029;DHT22;31763;48.180;7.904;2022-09-17T00:49:34;9.70;99.90
46029;DHT22;31763;48.180;7.904;2022-09-17T00:52:06;9.50;99.90
46029;DHT22;31763;48.180;7.904;2022-09-17T00:54:35;9.70;99.90
46029;DHT22;31763;48.180;7.904;2022-09-17T00:57:04;9.90;99.90
46029;DHT22;31763;48.180;7.904;2022-09-17T00:59:31;10.00;99.90
46029;DHT22;31763;48.180;7.904;2022-09-17T01:01:58;9.90;99.90
46029;DHT22;31763;48.180;7.904;2022-09-17T01:04:26;10.00;99.90
46029;DHT22;31763;48.180;7.904;2022-09-17T01:07:12;9.90;99.90
46029;DHT22;31763;48.180;7.904;2022-09-17T01:10:19;10.10;99.90
46029;DHT22;31763;48.180;7.904;2022-09-17T01:22:01;9.80;99.90
46029;DHT22;31763;48.180;7.904;2022-09-17T01:28:18;10.00;99.90
46029;DHT22;31763;48.180;7.904;2022-09-17T01:33:59;9.70;99.90
46029;DHT22;31763;48.180;7.904;2022-09-17T01:37:16;9.70;99.90
46029;DHT22;31763;48.180;7.904;2022-09-17T01:43:32;9.80;99.90
46029;DHT22;31763;48.180;7.904;2022-09-17T01:46:50;9.70;99.90
46029;DHT22;31763;48.180;7.904;2022-09-17T01:50:00;9.50;99.90
46029;DHT22;31763;48.180;7.904;2022-09-17T01:53:21;9.90;99.90
46029;DHT22;31763;48.180;7.904;2022-09-17T01:57:03;9.90;99.90
46029;DHT22;31763;48.180;7.904;2022-09-17T01:59:43;9.80;99.90
46029;DHT22;31763;48.180;7.904;2022-09-17T02:02:16;9.50;99.90
46029;DHT22;31763;48.180;7.904;2022-09-17T02:05:57;9.40;99.90
46029;DHT22;31763;48.180;7.904;2022-09-17T02:08:19;9.70;99.90
46029;DHT22;31763;48.180;7.904;2022-09-17T02:11:08;10.00;99.90
46029;DHT22;31763;48.180;7.904;2022-09-17T02:13:46;10.00;99.90
46029;DHT22;31763;48.180;7.904;2022-09-17T02:16:26;9.40;99.90
46029;DHT22;31763;48.180;7.904;2022-09-17T02:18:55;9.60;99.90
46029;DHT22;31763;48.180;7.904;2022-09-17T02:22:15;9.70;99.90
46029;DHT22;31763;48.180;7.904;2022-09-17T02:24:21;9.80;99.90
46029;DHT22;31763;48.180;7.904;2022-09-17T02:27:19;9.90;99.90
46029;DHT22;31763;48.180;7.904;2022-09-17T02:29:49;9.50;99.90
46029;DHT22;31763;48.180;7.904;2022-09-17T02:32:16;9.60;99.90
46029;DHT22;31763;48.180;7.904;2022-09-17T02:34:43;9.40;99.90
46029;DHT22;31763;48.180;7.904;2022-09-17T02:37:11;9.20;99.90
46029;DHT22;31763;48.180;7.904;2022-09-17T02:39:37;9.50;99.90
46029;DHT22;31763;48.180;7.904;2022-09-17T02:42:17;9.50;99.90
46029;DHT22;31763;48.180;7.904;2022-09-17T02:45:11;9.50;99.90
46029;DHT22;31763;48.180;7.904;2022-09-17T02:48:03;9.50;99.90
46029;DHT22;31763;48.180;7.904;2022-09-17T02:51:05;9.50;99.90
46029;DHT22;31763;48.180;7.904;2022-09-17T02:53:49;9.80;99.90
46029;DHT22;31763;48.180;7.904;2022-09-17T02:59:21;9.80;99.90
46029;DHT22;31763;48.180;7.904;2022-09-17T03:02:03;9.70;99.90
46029;DHT22;31763;48.180;7.904;2022-09-17T03:04:40;9.50;99.90
46029;DHT22;31763;48.180;7.904;2022-09-17T03:07:08;9.10;99.90
46029;DHT22;31763;48.180;7.904;2022-09-17T03:09:37;9.00;99.90
46029;DHT22;31763;48.180;7.904;2022-09-17T03:12:04;9.30;99.90
46029;DHT22;31763;48.180;7.904;2022-09-17T03:14:31;9.50;99.90
46029;DHT22;31763;48.180;7.904;2022-09-17T03:16:58;9.50;99.90
46029;DHT22;31763;48.180;7.904;2022-09-17T03:19:25;9.40;99.90
46029;DHT22;31763;48.180;7.904;2022-09-17T03:21:53;9.50;99.90
46029;DHT22;31763;48.180;7.904;2022-09-17T03:24:20;9.50;99.90
46029;DHT22;31763;48.180;7.904;2022-09-17T03:26:47;9.60;99.90
46029;DHT22;31763;48.180;7.904;2022-09-17T03:29:15;9.20;99.90
46029;DHT22;31763;48.180;7.904;2022-09-17T03:31:42;9.30;99.90
46029;DHT22;31763;48.180;7.904;2022-09-17T03:34:09;9.30;99.90
46029;DHT22;31763;48.180;7.904;2022-09-17T03:36:36;9.40;99.90
46029;DHT22;31763;48.180;7.904;2022-09-17T03:39:03;9.20;99.90
46029;DHT22;31763;48.180;7.904;2022-09-17T03:41:30;9.00;99.90
46029;DHT22;31763;48.180;7.904;2022-09-17T03:43:56;8.90;99.90
46029;DHT22;31763;48.180;7.904;2022-09-17T03:46:23;8.90;99.90
46029;DHT22;31763;48.180;7.904;2022-09-17T03:48:50;9.20;99.90
46029;DHT22;31763;48.180;7.904;2022-09-17T03:51:17;9.20;99.90
46029;DHT22;31763;48.180;7.904;2022-09-17T03:53:44;9.00;99.90
46029;DHT22;31763;48.180;7.904;2022-09-17T03:56:10;8.80;99.90
46029;DHT22;31763;48.180;7.904;2022-09-17T03:58:37;8.70;99.90
46029;DHT22;31763;48.180;7.904;2022-09-17T04:01:04;8.80;99.90
46029;DHT22;31763;48.180;7.904;2022-09-17T04:03:31;8.90;99.90
46029;DHT22;31763;48.180;7.904;2022-09-17T04:05:58;9.00;99.90
46029;DHT22;31763;48.180;7.904;2022-09-17T04:08:25;8.90;99.90
46029;DHT22;31763;48.180;7.904;2022-09-17T04:10:52;9.10;99.90
46029;DHT22;31763;48.180;7.904;2022-09-17T04:13:19;9.40;99.90
46029;DHT22;31763;48.180;7.904;2022-09-17T04:15:47;9.60;99.90
46029;DHT22;31763;48.180;7.904;2022-09-17T04:18:13;9.70;99.90
46029;DHT22;31763;48.180;7.904;2022-09-17T04:20:41;9.50;99.90
46029;DHT22;31763;48.180;7.904;2022-09-17T04:23:10;9.10;99.90
46029;DHT22;31763;48.180;7.904;2022-09-17T04:25:38;9.00;99.90
46029;DHT22;31763;48.180;7.904;2022-09-17T04:28:05;9.50;99.90
46029;DHT22;31763;48.180;7.904;2022-09-17T04:30:32;9.40;99.90
46029;DHT22;31763;48.180;7.904;2022-09-17T04:32:59;9.10;99.90
46029;DHT22;31763;48.180;7.904;2022-09-17T04:35:26;9.20;99.90
46029;DHT22;31763;48.180;7.904;2022-09-17T04:37:54;9.00;99.90
46029;DHT22;31763;48.180;7.904;2022-09-17T04:40:22;9.20;99.90
46029;DHT22;31763;48.180;7.904;2022-09-17T04:42:53;9.40;99.90
46029;DHT22;31763;48.180;7.904;2022-09-17T04:45:22;9.40;99.90
46029;DHT22;31763;48.180;7.904;2022-09-17T04:47:48;8.90;99.90
46029;DHT22;31763;48.180;7.904;2022-09-17T04:50:18;8.80;99.90
46029;DHT22;31763;48.180;7.904;2022-09-17T04:52:45;9.50;99.90
46029;DHT22;31763;48.180;7.904;2022-09-17T04:55:13;9.50;99.90
46029;DHT22;31763;48.180;7.904;2022-09-17T04:57:47;9.30;99.90
46029;DHT22;31763;48.180;7.904;2022-09-17T05:00:16;9.50;99.90
46029;DHT22;31763;48.180;7.904;2022-09-17T05:02:44;9.20;99.90
46029;DHT22;31763;48.180;7.904;2022-09-17T05:05:12;9.00;99.90
46029;DHT22;31763;48.180;7.904;2022-09-17T05:07:40;9.10;99.90
46029;DHT22;31763;48.180;7.904;2022-09-17T05:10:09;8.80;99.90
46029;DHT22;31763;48.180;7.904;2022-09-17T05:12:37;8.60;99.90
46029;DHT22;31763;48.180;7.904;2022-09-17T05:15:04;8.70;99.90
46029;DHT22;31763;48.180;7.904;2022-09-17T05:17:32;8.90;99.90
46029;DHT22;31763;48.180;7.904;2022-09-17T05:19:58;8.90;99.90
46029;DHT22;31763;48.180;7.904;2022-09-17T05:22:25;9.10;99.90
46029;DHT22;31763;48.180;7.904;2022-09-17T05:24:52;9.00;99.90
46029;DHT22;31763;48.180;7.904;2022-09-17T05:27:19;8.90;99.90
46029;DHT22;31763;48.180;7.904;2022-09-17T05:29:45;8.90;99.90
46029;DHT22;31763;48.180;7.904;2022-09-17T05:32:12;8.90;99.90
46029;DHT22;31763;48.180;7.904;2022-09-17T05:34:39;9.20;99.90
46029;DHT22;31763;48.180;7.904;2022-09-17T05:37:09;9.10;99.90
46029;DHT22;31763;48.180;7.904;2022-09-17T05:39:36;9.20;99.90
46029;DHT22;31763;48.180;7.904;2022-09-17T05:42:03;9.00;99.90
46029;DHT22;31763;48.180;7.904;2022-09-17T05:44:30;8.70;99.90
46029;DHT22;31763;48.180;7.904;2022-09-17T05:46:57;8.80;99.90
46029;DHT22;31763;48.180;7.904;2022-09-17T05:49:24;8.90;99.90
46029;DHT22;31763;48.180;7.904;2022-09-17T05:51:51;9.00;99.90
46029;DHT22;31763;48.180;7.904;2022-09-17T05:54:18;8.70;99.90
46029;DHT22;31763;48.180;7.904;2022-09-17T05:56:45;8.50;99.90
46029;DHT22;31763;48.180;7.904;2022-09-17T05:59:11;8.60;99.90
46029;DHT22;31763;48.180;7.904;2022-09-17T06:01:38;8.90;99.90
46029;DHT22;31763;48.180;7.904;2022-09-17T06:04:05;9.20;99.90
46029;DHT22;31763;48.180;7.904;2022-09-17T06:06:32;9.30;99.90
46029;DHT22;31763;48.180;7.904;2022-09-17T06:08:59;9.20;99.90
46029;DHT22;31763;48.180;7.904;2022-09-17T06:11:26;9.00;99.90
46029;DHT22;31763;48.180;7.904;2022-09-17T06:13:54;9.20;99.90
46029;DHT22;31763;48.180;7.904;2022-09-17T06:16:22;9.20;99.90
46029;DHT22;31763;48.180;7.904;2022-09-17T06:18:50;8.80;99.90
46029;DHT22;31763;48.180;7.904;2022-09-17T06:21:19;8.60;99.90
46029;DHT22;31763;48.180;7.904;2022-09-17T06:23:48;8.60;99.90
46029;DHT22;31763;48.180;7.904;2022-09-17T06:26:15;8.60;99.90
46029;DHT22;31763;48.180;7.904;2022-09-17T06:28:42;8.90;99.90
46029;DHT22;31763;48.180;7.904;2022-09-17T06:31:11;9.00;99.90
46029;DHT22;31763;48.180;7.904;2022-09-17T06:33:38;9.00;99.90
46029;DHT22;31763;48.180;7.904;2022-09-17T06:36:07;8.90;99.90
46029;DHT22;31763;48.180;7.904;2022-09-17T06:38:39;8.90;99.90
46029;DHT22;31763;48.180;7.904;2022-09-17T06:41:06;8.70;99.90
46029;DHT22;31763;48.180;7.904;2022-09-17T06:43:33;8.80;99.90
46029;DHT22;31763;48.180;7.904;2022-09-17T06:46:02;8.90;99.90
46029;DHT22;31763;48.180;7.904;2022-09-17T06:48:33;8.70;99.90
46029;DHT22;31763;48.180;7.904;2022-09-17T06:51:02;8.90;99.90
46029;DHT22;31763;48.180;7.904;2022-09-17T06:53:30;9.00;99.90
46029;DHT22;31763;48.180;7.904;2022-09-17T06:55:58;8.90;99.90
46029;DHT22;31763;48.180;7.904;2022-09-17T06:58:32;9.00;99.90
46029;DHT22;31763;48.180;7.904;2022-09-17T07:01:00;9.00;99.90
46029;DHT22;31763;48.180;7.904;2022-09-17T07:03:28;9.00;99.90
46029;DHT22;31763;48.180;7.904;2022-09-17T07:05:57;8.70;99.90
46029;DHT22;31763;48.180;7.904;2022-09-17T07:08:24;9.00;99.90
46029;DHT22;31763;48.180;7.904;2022-09-17T07:10:54;9.10;99.90
46029;DHT22;31763;48.180;7.904;2022-09-17T07:13:23;9.30;99.90
46029;DHT22;31763;48.180;7.904;2022-09-17T07:16:00;9.30;99.90
46029;DHT22;31763;48.180;7.904;2022-09-17T07:18:28;9.40;99.90
46029;DHT22;31763;48.180;7.904;2022-09-17T07:21:00;9.40;99.90
46029;DHT22;31763;48.180;7.904;2022-09-17T07:23:32;9.20;99.90
46029;DHT22;31763;48.180;7.904;2022-09-17T07:26:03;8.90;99.90
46029;DHT22;31763;48.180;7.904;2022-09-17T07:28:38;9.40;99.90
46029;DHT22;31763;48.180;7.904;2022-09-17T07:31:07;9.30;99.90
46029;DHT22;31763;48.180;7.904;2022-09-17T07:33:40;9.10;99.90
46029;DHT22;31763;48.180;7.904;2022-09-17T07:36:10;9.20;99.90
46029;DHT22;31763;48.180;7.904;2022-09-17T07:38:38;9.10;99.90
46029;DHT22;31763;48.180;7.904;2022-09-17T07:41:16;9.00;99.90
46029;DHT22;31763;48.180;7.904;2022-09-17T07:43:43;9.10;99.90
46029;DHT22;31763;48.180;7.904;2022-09-17T07:46:14;9.00;99.90
46029;DHT22;31763;48.180;7.904;2022-09-17T07:48:42;9.10;99.90
46029;DHT22;31763;48.180;7.904;2022-09-17T07:51:17;8.90;99.90
46029;DHT22;31763;48.180;7.904;2022-09-17T07:53:52;8.80;99.90
46029;DHT22;31763;48.180;7.904;2022-09-17T07:56:20;8.70;99.90
46029;DHT22;31763;48.180;7.904;2022-09-17T07:58:48;8.80;99.90
46029;DHT22;31763;48.180;7.904;2022-09-17T08:01:15;9.00;99.90
46029;DHT22;31763;48.180;7.904;2022-09-17T08:03:47;9.00;99.90
46029;DHT22;31763;48.180;7.904;2022-09-17T08:06:20;9.20;99.90
46029;DHT22;31763;48.180;7.904;2022-09-17T08:08:48;9.10;99.90
46029;DHT22;31763;48.180;7.904;2022-09-17T08:11:18;9.30;99.90
46029;DHT22;31763;48.180;7.904;2022-09-17T08:14:09;9.40;99.90
46029;DHT22;31763;48.180;7.904;2022-09-17T08:16:38;9.40;99.90
46029;DHT22;31763;48.180;7.904;2022-09-17T08:19:05;9.30;99.90
46029;DHT22;31763;48.180;7.904;2022-09-17T08:21:32;9.40;99.90
46029;DHT22;31763;48.180;7.904;2022-09-17T08:23:58;9.10;99.90
46029;DHT22;31763;48.180;7.904;2022-09-17T08:26:25;9.10;99.90
46029;DHT22;31763;48.180;7.904;2022-09-17T08:28:54;9.20;99.90
46029;DHT22;31763;48.180;7.904;2022-09-17T08:31:23;9.30;99.90
46029;DHT22;31763;48.180;7.904;2022-09-17T08:33:52;9.20;99.90
46029;DHT22;31763;48.180;7.904;2022-09-17T08:36:19;9.20;99.90
46029;DHT22;31763;48.180;7.904;2022-09-17T08:38:46;9.50;99.90
46029;DHT22;31763;48.180;7.904;2022-09-17T08:44:40;9.50;99.90
46029;DHT22;31763;48.180;7.904;2022-09-17T08:49:59;9.40;99.90
46029;DHT22;31763;48.180;7.904;2022-09-17T08:55:50;9.50;99.90
46029;DHT22;31763;48.180;7.904;2022-09-17T09:01:57;9.70;99.90
46029;DHT22;31763;48.180;7.904;2022-09-17T09:04:40;9.70;99.90
46029;DHT22;31763;48.180;7.904;2022-09-17T09:07:15;9.70;99.90
46029;DHT22;31763;48.180;7.904;2022-09-17T09:09:53;9.60;99.90
46029;DHT22;31763;48.180;7.904;2022-09-17T09:12:42;9.30;99.90
46029;DHT22;31763;48.180;7.904;2022-09-17T09:15:35;9.10;99.90
46029;DHT22;31763;48.180;7.904;2022-09-17T09:18:17;8.90;99.90
46029;DHT22;31763;48.180;7.904;2022-09-17T09:20:49;9.10;99.90
46029;DHT22;31763;48.180;7.904;2022-09-17T09:24:08;9.00;99.90
46029;DHT22;31763;48.180;7.904;2022-09-17T09:26:48;9.00;99.90
46029;DHT22;31763;48.180;7.904;2022-09-17T09:29:59;9.00;99.90
46029;DHT22;31763;48.180;7.904;2022-09-17T09:35:22;8.70;99.90
46029;DHT22;31763;48.180;7.904;2022-09-17T09:38:03;8.50;99.90
46029;DHT22;31763;48.180;7.904;2022-09-17T09:40:47;9.00;99.90
46029;DHT22;31763;48.180;7.904;2022-09-17T09:46:38;8.90;99.90
46029;DHT22;31763;48.180;7.904;2022-09-17T09:56:11;9.50;99.90
46029;DHT22;31763;48.180;7.904;2022-09-17T09:59:06;9.60;99.90
46029;DHT22;31763;48.180;7.904;2022-09-17T10:01:39;9.00;99.90
46029;DHT22;31763;48.180;7.904;2022-09-17T10:04:22;8.90;99.90
46029;DHT22;31763;48.180;7.904;2022-09-17T10:06:52;8.70;99.90
46029;DHT22;31763;48.180;7.904;2022-09-17T10:09:29;9.40;99.90
46029;DHT22;31763;48.180;7.904;2022-09-17T10:12:14;10.20;99.90
46029;DHT22;31763;48.180;7.904;2022-09-17T10:14:44;9.20;99.90
46029;DHT22;31763;48.180;7.904;2022-09-17T10:17:26;9.80;99.90
46029;DHT22;31763;48.180;7.904;2022-09-17T10:22:43;9.80;99.90
46029;DHT22;31763;48.180;7.904;2022-09-17T10:25:34;9.50;99.90
46029;DHT22;31763;48.180;7.904;2022-09-17T10:28:04;9.70;99.90
46029;DHT22;31763;48.180;7.904;2022-09-17T10:30:37;9.70;99.90
46029;DHT22;31763;48.180;7.904;2022-09-17T10:35:39;10.50;99.90
46029;DHT22;31763;48.180;7.904;2022-09-17T10:38:29;10.00;99.90
46029;DHT22;31763;48.180;7.904;2022-09-17T10:41:18;10.70;99.90
46029;DHT22;31763;48.180;7.904;2022-09-17T10:43:50;10.20;99.90
46029;DHT22;31763;48.180;7.904;2022-09-17T10:46:25;10.20;99.90
46029;DHT22;31763;48.180;7.904;2022-09-17T10:52:23;10.40;99.90
46029;DHT22;31763;48.180;7.904;2022-09-17T10:58:03;10.40;99.90
46029;DHT22;31763;48.180;7.904;2022-09-17T11:18:22;9.90;99.90
46029;DHT22;31763;48.180;7.904;2022-09-17T11:27:52;10.20;99.90
46029;DHT22;31763;48.180;7.904;2022-09-17T11:30:14;10.60;99.90
46029;DHT22;31763;48.180;7.904;2022-09-17T11:35:42;11.00;99.90
46029;DHT22;31763;48.180;7.904;2022-09-17T11:38:35;10.90;99.90
46029;DHT22;31763;48.180;7.904;2022-09-17T11:41:07;10.70;99.90
46029;DHT22;31763;48.180;7.904;2022-09-17T11:44:06;11.00;99.90
46029;DHT22;31763;48.180;7.904;2022-09-17T11:47:08;11.00;99.90
46029;DHT22;31763;48.180;7.904;2022-09-17T11:49:41;10.80;99.90
46029;DHT22;31763;48.180;7.904;2022-09-17T11:52:26;10.60;99.90
46029;DHT22;31763;48.180;7.904;2022-09-17T11:55:05;10.60;99.90
46029;DHT22;31763;48.180;7.904;2022-09-17T11:57:38;10.50;99.90
46029;DHT22;31763;48.180;7.904;2022-09-17T12:00:12;10.50;99.90
46029;DHT22;31763;48.180;7.904;2022-09-17T12:02:55;10.70;99.90
46029;DHT22;31763;48.180;7.904;2022-09-17T12:05:34;10.40;99.90
46029;DHT22;31763;48.180;7.904;2022-09-17T12:11:18;10.30;99.90
46029;DHT22;31763;48.180;7.904;2022-09-17T12:13:48;10.50;99.90
46029;DHT22;31763;48.180;7.904;2022-09-17T12:16:25;10.70;99.90
46029;DHT22;31763;48.180;7.904;2022-09-17T12:21:50;10.80;99.90
46029;DHT22;31763;48.180;7.904;2022-09-17T12:24:28;10.60;99.90
46029;DHT22;31763;48.180;7.904;2022-09-17T12:32:58;10.90;99.90
46029;DHT22;31763;48.180;7.904;2022-09-17T12:35:55;11.30;99.90
46029;DHT22;31763;48.180;7.904;2022-09-17T12:38:56;11.60;99.90
46029;DHT22;31763;48.180;7.904;2022-09-17T12:41:50;12.90;99.90
46029;DHT22;31763;48.180;7.904;2022-09-17T12:45:08;12.70;99.90
46029;DHT22;31763;48.180;7.904;2022-09-17T12:50:50;12.50;99.90
46029;DHT22;31763;48.180;7.904;2022-09-17T12:53:33;12.10;99.90
46029;DHT22;31763;48.180;7.904;2022-09-17T12:56:15;11.90;99.90
46029;DHT22;31763;48.180;7.904;2022-09-17T12:59:17;12.00;99.90
46029;DHT22;31763;48.180;7.904;2022-09-17T13:01:56;12.10;99.90
46029;DHT22;31763;48.180;7.904;2022-09-17T13:04:33;12.60;99.90
46029;DHT22;31763;48.180;7.904;2022-09-17T13:07:38;12.30;99.90
46029;DHT22;31763;48.180;7.904;2022-09-17T13:19:59;13.00;99.90
46029;DHT22;31763;48.180;7.904;2022-09-17T13:22:49;14.20;99.90
46029;DHT22;31763;48.180;7.904;2022-09-17T13:25:53;15.00;99.90
46029;DHT22;31763;48.180;7.904;2022-09-17T13:28:54;14.50;99.90
46029;DHT22;31763;48.180;7.904;2022-09-17T13:38:45;14.90;99.90
46029;DHT22;31763;48.180;7.904;2022-09-17T13:43:18;15.00;99.90
46029;DHT22;31763;48.180;7.904;2022-09-17T13:48:28;15.80;99.90
46029;DHT22;31763;48.180;7.904;2022-09-17T13:53:57;14.90;99.90
46029;DHT22;31763;48.180;7.904;2022-09-17T13:56:33;14.00;99.90
46029;DHT22;31763;48.180;7.904;2022-09-17T14:07:35;12.90;99.90
46029;DHT22;31763;48.180;7.904;2022-09-17T14:21:21;12.60;99.90
46029;DHT22;31763;48.180;7.904;2022-09-17T14:23:55;12.90;99.90
46029;DHT22;31763;48.180;7.904;2022-09-17T14:32:12;12.80;99.90
46029;DHT22;31763;48.180;7.904;2022-09-17T14:38:56;12.40;99.90
46029;DHT22;31763;48.180;7.904;2022-09-17T14:42:03;12.60;99.90
46029;DHT22;31763;48.180;7.904;2022-09-17T14:45:12;12.80;99.90
46029;DHT22;31763;48.180;7.904;2022-09-17T14:47:45;13.20;99.90
46029;DHT22;31763;48.180;7.904;2022-09-17T14:50:25;13.40;99.90
46029;DHT22;31763;48.180;7.904;2022-09-17T14:53:13;14.10;99.90
46029;DHT22;31763;48.180;7.904;2022-09-17T14:56:00;14.30;99.90
46029;DHT22;31763;48.180;7.904;2022-09-17T15:02:37;14.00;99.90
46029;DHT22;31763;48.180;7.904;2022-09-17T15:10:47;12.90;99.90
46029;DHT22;31763;48.180;7.904;2022-09-17T15:13:41;12.90;99.90
46029;DHT22;31763;48.180;7.904;2022-09-17T15:16:15;13.00;99.90
46029;DHT22;31763;48.180;7.904;2022-09-17T15:19:02;13.30;99.90
46029;DHT22;31763;48.180;7.904;2022-09-17T15:21:46;13.70;99.90
46029;DHT22;31763;48.180;7.904;2022-09-17T15:26:54;14.80;99.90
46029;DHT22;31763;48.180;7.904;2022-09-17T15:29:27;14.20;99.90
46029;DHT22;31763;48.180;7.904;2022-09-17T15:31:56;13.40;99.90
46029;DHT22;31763;48.180;7.904;2022-09-17T15:34:23;13.00;99.90
46029;DHT22;31763;48.180;7.904;2022-09-17T15:37:05;12.70;99.90
46029;DHT22;31763;48.180;7.904;2022-09-17T15:39:42;12.50;99.90
46029;DHT22;31763;48.180;7.904;2022-09-17T15:42:21;12.40;99.90
46029;DHT22;31763;48.180;7.904;2022-09-17T15:44:49;12.50;99.90
46029;DHT22;31763;48.180;7.904;2022-09-17T15:52:45;12.50;99.90
46029;DHT22;31763;48.180;7.904;2022-09-17T15:55:33;12.40;99.90
46029;DHT22;31763;48.180;7.904;2022-09-17T15:58:22;12.70;99.90
46029;DHT22;31763;48.180;7.904;2022-09-17T16:08:55;12.80;99.90
46029;DHT22;31763;48.180;7.904;2022-09-17T16:11:30;12.50;99.90
46029;DHT22;31763;48.180;7.904;2022-09-17T16:13:59;12.50;99.90
46029;DHT22;31763;48.180;7.904;2022-09-17T16:16:31;12.40;99.90
46029;DHT22;31763;48.180;7.904;2022-09-17T16:18:59;12.30;99.90
46029;DHT22;31763;48.180;7.904;2022-09-17T16:21:26;12.70;99.90
46029;DHT22;31763;48.180;7.904;2022-09-17T16:23:54;12.60;99.90
46029;DHT22;31763;48.180;7.904;2022-09-17T16:26:28;11.90;99.90
46029;DHT22;31763;48.180;7.904;2022-09-17T16:29:02;12.10;99.90
46029;DHT22;31763;48.180;7.904;2022-09-17T16:31:31;11.80;99.90
46029;DHT22;31763;48.180;7.904;2022-09-17T16:33:58;11.60;99.90
46029;DHT22;31763;48.180;7.904;2022-09-17T16:36:26;11.60;99.90
46029;DHT22;31763;48.180;7.904;2022-09-17T16:38:56;11.50;99.90
46029;DHT22;31763;48.180;7.904;2022-09-17T16:41:24;11.60;99.90
46029;DHT22;31763;48.180;7.904;2022-09-17T16:43:50;11.60;99.90
46029;DHT22;31763;48.180;7.904;2022-09-17T16:46:17;11.60;99.90
46029;DHT22;31763;48.180;7.904;2022-09-17T16:48:48;11.60;99.90
46029;DHT22;31763;48.180;7.904;2022-09-17T16:51:16;11.60;99.90
46029;DHT22;31763;48.180;7.904;2022-09-17T16:53:43;11.50;99.90
46029;DHT22;31763;48.180;7.904;2022-09-17T16:56:11;11.30;99.90
46029;DHT22;31763;48.180;7.904;2022-09-17T16:58:39;11.30;99.90
46029;DHT22;31763;48.180;7.904;2022-09-17T17:01:12;11.20;99.90
46029;DHT22;31763;48.180;7.904;2022-09-17T17:03:40;11.30;99.90
46029;DHT22;31763;48.180;7.904;2022-09-17T17:06:15;11.20;99.90
46029;DHT22;31763;48.180;7.904;2022-09-17T17:08:42;11.20;99.90
46029;DHT22;31763;48.180;7.904;2022-09-17T17:11:09;11.30;99.90
46029;DHT22;31763;48.180;7.904;2022-09-17T17:13:36;11.20;99.90
46029;DHT22;31763;48.180;7.904;2022-09-17T17:16:07;11.10;99.90
46029;DHT22;31763;48.180;7.904;2022-09-17T17:18:34;11.00;99.90
46029;DHT22;31763;48.180;7.904;2022-09-17T17:21:06;11.20;99.90
46029;DHT22;31763;48.180;7.904;2022-09-17T17:23:34;11.20;99.90
46029;DHT22;31763;48.180;7.904;2022-09-17T17:26:02;11.00;99.90
46029;DHT22;31763;48.180;7.904;2022-09-17T17:28:33;10.90;99.90
46029;DHT22;31763;48.180;7.904;2022-09-17T17:31:04;11.00;99.90
46029;DHT22;31763;48.180;7.904;2022-09-17T17:33:32;10.90;99.90
46029;DHT22;31763;48.180;7.904;2022-09-17T17:36:00;10.60;99.90
46029;DHT22;31763;48.180;7.904;2022-09-17T17:38:34;10.70;99.90
46029;DHT22;31763;48.180;7.904;2022-09-17T17:41:21;10.70;99.90
46029;DHT22;31763;48.180;7.904;2022-09-17T17:43:55;10.40;99.90
46029;DHT22;31763;48.180;7.904;2022-09-17T17:46:23;10.40;99.90
46029;DHT22;31763;48.180;7.904;2022-09-17T17:48:50;10.30;99.90
46029;DHT22;31763;48.180;7.904;2022-09-17T17:51:17;10.40;99.90
46029;DHT22;31763;48.180;7.904;2022-09-17T17:53:45;10.40;99.90
46029;DHT22;31763;48.180;7.904;2022-09-17T17:56:12;10.60;99.90
46029;DHT22;31763;48.180;7.904;2022-09-17T17:58:39;10.50;99.90
46029;DHT22;31763;48.180;7.904;2022-09-17T18:01:18;10.30;99.90
46029;DHT22;31763;48.180;7.904;2022-09-17T18:03:46;10.30;99.90
46029;DHT22;31763;48.180;7.904;2022-09-17T18:06:13;10.40;99.90
46029;DHT22;31763;48.180;7.904;2022-09-17T18:08:41;10.60;99.90
46029;DHT22;31763;48.180;7.904;2022-09-17T18:11:09;10.40;99.90
46029;DHT22;31763;48.180;7.904;2022-09-17T18:13:38;10.50;99.90
46029;DHT22;31763;48.180;7.904;2022-09-17T18:16:06;10.60;99.90
46029;DHT22;31763;48.180;7.904;2022-09-17T18:18:44;10.40;99.90
46029;DHT22;31763;48.180;7.904;2022-09-17T18:21:17;10.60;99.90
46029;DHT22;31763;48.180;7.904;2022-09-17T18:23:45;10.80;99.90
46029;DHT22;31763;48.180;7.904;2022-09-17T18:26:14;10.30;99.90
46029;DHT22;31763;48.180;7.904;2022-09-17T18:28:45;10.40;99.90
46029;DHT22;31763;48.180;7.904;2022-09-17T18:31:22;10.50;99.90
46029;DHT22;31763;48.180;7.904;2022-09-17T18:33:58;10.50;99.90
46029;DHT22;31763;48.180;7.904;2022-09-17T18:36:29;10.10;99.90
46029;DHT22;31763;48.180;7.904;2022-09-17T18:38:59;9.90;99.90
46029;DHT22;31763;48.180;7.904;2022-09-17T18:41:47;10.00;99.90
46029;DHT22;31763;48.180;7.904;2022-09-17T18:44:14;10.10;99.90
46029;DHT22;31763;48.180;7.904;2022-09-17T18:46:41;9.90;99.90
46029;DHT22;31763;48.180;7.904;2022-09-17T18:49:08;9.90;99.90
46029;DHT22;31763;48.180;7.904;2022-09-17T18:51:36;9.70;99.90
46029;DHT22;31763;48.180;7.904;2022-09-17T18:54:03;9.70;99.90
46029;DHT22;31763;48.180;7.904;2022-09-17T18:56:31;9.70;99.90
46029;DHT22;31763;48.180;7.904;2022-09-17T18:58:59;9.60;99.90
46029;DHT22;31763;48.180;7.904;2022-09-17T19:01:32;9.70;99.90
46029;DHT22;31763;48.180;7.904;2022-09-17T19:03:59;9.40;99.90
46029;DHT22;31763;48.180;7.904;2022-09-17T19:06:27;9.40;99.90
46029;DHT22;31763;48.180;7.904;2022-09-17T19:08:58;9.40;99.90
46029;DHT22;31763;48.180;7.904;2022-09-17T19:11:26;9.30;99.90
46029;DHT22;31763;48.180;7.904;2022-09-17T19:13:53;9.40;99.90
46029;DHT22;31763;48.180;7.904;2022-09-17T19:16:20;9.50;99.90
46029;DHT22;31763;48.180;7.904;2022-09-17T19:18:47;9.50;99.90
46029;DHT22;31763;48.180;7.904;2022-09-17T19:21:18;9.60;99.90
46029;DHT22;31763;48.180;7.904;2022-09-17T19:23:50;9.70;99.90
46029;DHT22;31763;48.180;7.904;2022-09-17T19:26:19;9.70;99.90